SBOSBO MCO / KMCO
Speedbird OnlineSpeedbird Online MCO / KMCO

Orlando International Airport
18:50 22.1°C

Location Orlando, United States
Latitude: 28.429399490356445
Longitude: -81.30899810791016
Web Airport Website | Wikipedia
Altitude 29 Meter / 96 Feet
Distance 7,004 KM / 4,352 Miles
from London.
Time Zone UTC -5 hours (America/New_York)
Codes IATA: MCO
ICAO: KMCO
Currency £1 equals USD 1.21
Runways
RunwayLength (m)Surface
17L2743Asphalt
17R3048Concrete
18L3659Partial
18R3659Concrete
35L3048Concrete
35R2743Asphalt
36L3659Concrete
36R3659Partial
Radio
TypeDescriptionFrequency
A/DAPP/DEP119.4
ATISATIS121.25
CLDCLNC DEL134.7
GNDGND121.8
OPSAR OPS41.5
RDOST PETERSBURG RDO122.1
RDOST PETERSBURG RDO122.2
TWRTWR118.45
UNICUNICOM122.95
Live ATC
METAR KMCO 081353Z 08004KT 10SM FEW045 FEW250 19/14 A3029 RMK AO2 SLP255 T01890144
TAF KMCO 081458Z 0815/0918 11010G15KT P6SM FEW040 SCT250 FM090100 11005KT P6SM SCT045 SCT250 FM091500 13008KT P6SM SCT040
Weather As Of 08 Feb 2023 18:50
Description Smoke
Wind 19 km/h from East (100°)
Cloud Cover 20%
Precipitation Rain: none, Snow: none
Sunrise 07:08
Sunset 18:10
Lounges Plaza Premium Lounge MCO, C
American Airlines Admirals Club, Terminal B
Rotations During the last 90 days there were
110 flights from LGW
9 flights from LHR
111 flights to LGW
23 flights to LHR



Support Speedbird Online

© 2017-2023 Speedbird Online